Time;durP1;ratioP1;P1;durP2;ratioP2;P2;SDS_P1;SDS_P2;PMS_P1;PMS_P2;Temp;Humidity;BMP_temperature;BMP_pressure;BME280_temperature;BME280_humidity;BME280_pressure;Samples;Min_cycle;Max_cycle;Signal;HPM_P1;HPM_P2
2022/04/20 00:01:05;;;;;;;3.40;3.20;;;5.50;99.90;;;;;;5093819;28;20403;-68
2022/04/20 00:03:31;;;;;;;3.50;3.20;;;5.50;99.90;;;;;;5093995;28;20276;-64
2022/04/20 00:05:57;;;;;;;3.27;2.90;;;5.40;99.90;;;;;;5094020;28;20181;-66
2022/04/20 00:08:23;;;;;;;4.10;2.67;;;5.40;99.90;;;;;;5094004;28;20396;-65
2022/04/20 00:10:48;;;;;;;4.03;3.30;;;5.30;99.90;;;;;;5093401;28;20177;-63
2022/04/20 00:13:14;;;;;;;4.33;3.97;;;5.30;99.90;;;;;;5093812;28;20192;-67
2022/04/20 00:15:40;;;;;;;3.70;3.50;;;5.20;99.90;;;;;;5093986;28;20575;-63
2022/04/20 00:18:05;;;;;;;4.53;3.60;;;5.10;99.90;;;;;;5093351;28;20201;-65
2022/04/20 00:20:31;;;;;;;3.70;3.40;;;5.00;99.90;;;;;;5092937;28;20765;-67
2022/04/20 00:22:57;;;;;;;3.57;3.27;;;4.90;99.90;;;;;;5093888;28;20181;-63
2022/04/20 00:25:23;;;;;;;6.27;4.30;;;4.90;99.90;;;;;;5093784;28;20169;-63
2022/04/20 00:27:48;;;;;;;3.97;3.50;;;4.90;99.90;;;;;;5093570;28;20204;-63
2022/04/20 00:30:14;;;;;;;6.17;3.73;;;4.90;99.90;;;;;;5092901;28;20194;-62
2022/04/20 00:32:40;;;;;;;3.97;3.67;;;5.00;99.90;;;;;;5093565;28;20192;-63
2022/04/20 00:35:07;;;;;;;4.30;3.90;;;4.90;99.90;;;;;;5093655;28;20218;-68
2022/04/20 00:37:36;;;;;;;5.70;4.10;;;4.90;99.90;;;;;;5092971;28;20460;-67
2022/04/20 00:40:03;;;;;;;3.83;3.40;;;4.90;99.90;;;;;;5092569;28;20406;-64
2022/04/20 00:42:31;;;;;;;4.53;3.73;;;4.90;99.90;;;;;;5092004;28;20427;-64
2022/04/20 00:44:57;;;;;;;7.43;3.93;;;4.90;99.90;;;;;;5093621;28;20494;-63
2022/04/20 00:47:24;;;;;;;3.70;3.40;;;4.90;99.90;;;;;;5093532;28;20498;-61
2022/04/20 00:49:51;;;;;;;11.60;3.73;;;4.90;99.90;;;;;;5092625;28;20439;-64
2022/04/20 00:52:17;;;;;;;3.90;3.60;;;4.90;99.90;;;;;;5093276;28;20435;-63
2022/04/20 00:54:43;;;;;;;4.57;4.13;;;4.90;99.90;;;;;;5093315;28;20778;-63
2022/04/20 00:57:09;;;;;;;5.40;4.20;;;4.90;99.90;;;;;;5092519;28;20462;-66
2022/04/20 00:59:36;;;;;;;7.90;3.60;;;4.90;99.90;;;;;;5092004;28;20174;-66
2022/04/20 01:02:03;;;;;;;4.80;4.30;;;4.90;99.90;;;;;;5093175;28;20430;-66
2022/04/20 01:04:30;;;;;;;3.73;3.50;;;4.90;99.90;;;;;;5093060;28;20424;-68
2022/04/20 01:07:13;;;;;;;4.17;3.77;;;4.90;99.90;;;;;;5093344;28;20410;-65
2022/04/20 01:09:40;;;;;;;7.43;3.80;;;4.90;99.90;;;;;;5092343;28;20399;-64
2022/04/20 01:12:06;;;;;;;7.67;3.60;;;4.80;99.90;;;;;;5093009;28;20828;-64
2022/04/20 01:14:32;;;;;;;3.70;3.40;;;4.80;99.90;;;;;;5092871;28;20418;-64
2022/04/20 01:17:01;;;;;;;4.27;3.90;;;4.80;99.90;;;;;;5092625;28;20458;-68
2022/04/20 01:19:33;;;;;;;4.33;3.97;;;4.80;99.90;;;;;;5091222;28;20418;-63
2022/04/20 01:22:00;;;;;;;4.33;3.93;;;4.80;99.90;;;;;;5092851;28;20421;-63
2022/04/20 01:24:26;;;;;;;3.60;3.40;;;4.80;99.90;;;;;;5092836;28;20409;-63
2022/04/20 01:26:52;;;;;;;3.97;3.27;;;4.80;99.90;;;;;;5093012;28;20409;-67
2022/04/20 01:29:19;;;;;;;4.50;3.67;;;4.80;99.90;;;;;;5092088;28;20176;-67
2022/04/20 01:31:44;;;;;;;4.13;3.83;;;4.80;99.90;;;;;;5092801;28;20268;-65
2022/04/20 01:34:10;;;;;;;3.17;2.97;;;4.70;99.90;;;;;;5092316;28;20493;-66
2022/04/20 01:36:36;;;;;;;5.60;3.47;;;4.70;99.90;;;;;;5092658;28;20191;-66
2022/04/20 01:39:02;;;;;;;3.80;3.50;;;4.70;99.90;;;;;;5092142;28;20620;-68
2022/04/20 01:41:27;;;;;;;3.67;3.43;;;4.70;99.90;;;;;;5092790;28;20425;-66
2022/04/20 01:43:53;;;;;;;4.47;4.07;;;4.70;99.90;;;;;;5092801;28;20759;-67
2022/04/20 01:46:19;;;;;;;3.90;3.63;;;4.70;99.90;;;;;;5092845;28;20177;-64
2022/04/20 01:48:44;;;;;;;4.20;3.90;;;4.60;99.90;;;;;;5091795;28;20198;-66
2022/04/20 01:53:54;;;;;;;10.73;3.80;;;4.60;99.90;;;;;;5092755;28;20172;-62
2022/04/20 01:56:20;;;;;;;3.50;3.30;;;4.60;99.90;;;;;;5092767;28;20450;-67
2022/04/20 01:58:45;;;;;;;3.57;3.30;;;4.60;99.90;;;;;;5091658;28;20225;-64
2022/04/20 02:03:55;;;;;;;4.73;4.33;;;4.50;99.90;;;;;;5092659;28;20249;-67
2022/04/20 02:06:21;;;;;;;3.73;3.30;;;4.40;99.90;;;;;;5092679;28;20464;-64
2022/04/20 02:08:47;;;;;;;4.00;3.70;;;4.50;99.90;;;;;;5091677;28;20402;-67
2022/04/20 02:11:12;;;;;;;3.87;3.67;;;4.50;99.90;;;;;;5094863;28;20543;-64
2022/04/20 02:13:39;;;;;;;5.80;4.40;;;4.40;99.90;;;;;;5096334;28;20570;-63
2022/04/20 02:16:05;;;;;;;7.23;3.83;;;4.40;99.90;;;;;;5096197;28;20197;-66
2022/04/20 02:18:31;;;;;;;4.10;3.40;;;4.40;99.90;;;;;;5095367;28;20413;-67
2022/04/20 02:20:56;;;;;;;3.77;3.47;;;4.40;99.90;;;;;;5096102;28;20427;-63
2022/04/20 02:23:22;;;;;;;4.00;3.60;;;4.40;99.90;;;;;;5096052;28;20188;-63
2022/04/20 02:25:48;;;;;;;3.40;3.20;;;4.40;99.90;;;;;;5095015;28;20179;-68
2022/04/20 02:28:13;;;;;;;7.23;4.10;;;4.30;99.90;;;;;;5096073;28;20540;-67
2022/04/20 02:30:39;;;;;;;3.97;3.67;;;4.30;99.90;;;;;;5094354;28;20175;-66
2022/04/20 02:33:05;;;;;;;4.40;4.00;;;4.30;99.90;;;;;;5095728;28;20202;-64
2022/04/20 02:35:31;;;;;;;5.37;3.63;;;4.30;99.90;;;;;;5096093;28;20215;-63
2022/04/20 02:37:59;;;;;;;4.73;3.93;;;4.30;99.90;;;;;;5095782;28;20457;-63
2022/04/20 02:40:25;;;;;;;4.03;3.63;;;4.30;99.90;;;;;;5094967;28;20483;-65
2022/04/20 02:42:50;;;;;;;3.40;3.10;;;4.20;99.90;;;;;;5095685;28;20422;-68
2022/04/20 02:45:16;;;;;;;3.40;3.20;;;4.20;99.90;;;;;;5095629;28;20903;-63
2022/04/20 02:47:43;;;;;;;4.27;3.33;;;4.20;99.90;;;;;;5095625;28;20621;-68
2022/04/20 02:50:08;;;;;;;4.43;3.63;;;4.20;99.90;;;;;;5094309;28;20404;-63
2022/04/20 02:52:34;;;;;;;3.20;3.00;;;4.20;99.90;;;;;;5094252;28;20440;-66
2022/04/20 02:54:59;;;;;;;3.77;3.43;;;4.10;99.90;;;;;;5095555;28;20185;-64
2022/04/20 02:57:26;;;;;;;4.57;3.87;;;4.20;99.90;;;;;;5095355;28;20290;-63
2022/04/20 02:59:52;;;;;;;3.90;3.60;;;4.10;99.90;;;;;;5094572;28;20210;-64
2022/04/20 03:02:17;;;;;;;3.63;3.40;;;4.10;99.90;;;;;;5095492;28;20411;-63
2022/04/20 03:04:43;;;;;;;3.47;3.20;;;4.20;99.90;;;;;;5095301;28;20457;-67
2022/04/20 03:07:09;;;;;;;8.13;4.20;;;4.10;99.90;;;;;;5095305;28;20248;-66
2022/04/20 03:09:35;;;;;;;5.07;4.00;;;4.10;99.90;;;;;;5093912;28;20168;-66
2022/04/20 03:12:01;;;;;;;4.87;4.47;;;4.10;99.90;;;;;;5095146;28;20470;-66
2022/04/20 03:14:26;;;;;;;4.33;3.37;;;4.20;99.90;;;;;;5095185;28;20426;-64
2022/04/20 03:16:52;;;;;;;4.50;3.67;;;4.20;99.90;;;;;;5095143;28;20593;-63
2022/04/20 03:19:17;;;;;;;3.87;3.20;;;4.20;99.90;;;;;;5094111;28;20166;-66
2022/04/20 03:21:43;;;;;;;4.50;4.13;;;4.10;99.90;;;;;;5094425;28;20537;-68
2022/04/20 03:24:09;;;;;;;4.67;3.80;;;4.10;99.90;;;;;;5095043;28;20179;-67
2022/04/20 03:26:34;;;;;;;6.73;3.20;;;4.10;99.90;;;;;;5094848;28;20410;-63
2022/04/20 03:29:00;;;;;;;4.33;3.93;;;4.10;99.90;;;;;;5093354;28;20166;-67
2022/04/20 03:31:26;;;;;;;4.67;3.73;;;4.10;99.90;;;;;;5094644;28;20156;-63
2022/04/20 03:33:51;;;;;;;3.47;3.20;;;4.10;99.90;;;;;;5094771;28;20167;-68
2022/04/20 03:36:17;;;;;;;5.20;4.07;;;4.00;99.90;;;;;;5094722;28;20221;-68
2022/04/20 03:38:43;;;;;;;3.97;3.70;;;4.10;99.90;;;;;;5093775;28;20866;-67
2022/04/20 03:41:09;;;;;;;4.70;3.60;;;4.00;99.90;;;;;;5094609;28;20245;-66
2022/04/20 03:43:34;;;;;;;4.80;3.13;;;3.90;99.90;;;;;;5094442;28;20196;-64
2022/04/20 03:46:00;;;;;;;4.87;4.00;;;3.90;99.90;;;;;;5094356;28;20168;-64
2022/04/20 03:48:26;;;;;;;3.83;3.53;;;3.90;99.90;;;;;;5093917;28;20169;-66
2022/04/20 03:50:51;;;;;;;4.17;3.87;;;3.90;99.90;;;;;;5093902;28;20164;-67
2022/04/20 03:53:18;;;;;;;4.80;3.80;;;3.90;99.90;;;;;;5093025;28;20433;-68
2022/04/20 03:55:44;;;;;;;4.13;3.83;;;4.00;99.90;;;;;;5092998;28;20637;-68
2022/04/20 03:58:10;;;;;;;8.15;6.07;;;4.00;99.90;;;;;;5092704;28;20520;-66
2022/04/20 04:00:35;;;;;;;6.57;5.97;;;4.10;99.90;;;;;;5093309;28;20211;-63
2022/04/20 04:03:01;;;;;;;8.53;5.63;;;4.10;99.90;;;;;;5094193;28;20200;-63
2022/04/20 04:05:27;;;;;;;6.63;4.97;;;4.10;99.90;;;;;;5093972;28;20197;-67
2022/04/20 04:07:54;;;;;;;4.87;4.17;;;4.10;99.90;;;;;;5093572;28;20183;-63
2022/04/20 04:10:19;;;;;;;4.13;3.83;;;4.10;99.90;;;;;;5093409;28;20418;-67
2022/04/20 04:12:45;;;;;;;5.03;4.53;;;4.10;99.90;;;;;;5093871;28;20434;-63
2022/04/20 04:15:11;;;;;;;4.57;4.17;;;4.10;99.90;;;;;;5094033;28;20177;-63
2022/04/20 04:17:37;;;;;;;5.47;4.83;;;4.10;99.90;;;;;;5093622;28;20959;-64
2022/04/20 04:20:04;;;;;;;4.03;3.73;;;4.10;99.90;;;;;;5092920;28;20625;-63
2022/04/20 04:22:30;;;;;;;4.00;3.70;;;4.10;99.90;;;;;;5093509;28;20241;-67
2022/04/20 04:24:57;;;;;;;4.20;3.10;;;4.10;99.90;;;;;;5093453;28;20802;-67
2022/04/20 04:27:22;;;;;;;3.77;3.50;;;4.10;99.90;;;;;;5093715;28;20875;-63
2022/04/20 04:29:48;;;;;;;5.40;3.87;;;4.10;99.90;;;;;;5092660;28;20504;-64
2022/04/20 04:32:14;;;;;;;5.80;4.70;;;4.10;99.90;;;;;;5093741;28;20430;-66
2022/04/20 04:34:40;;;;;;;4.03;3.77;;;4.10;99.90;;;;;;5092760;28;20213;-68
2022/04/20 04:37:06;;;;;;;9.00;4.77;;;4.10;99.90;;;;;;5093579;28;20192;-64
2022/04/20 04:39:32;;;;;;;5.60;4.27;;;4.10;99.90;;;;;;5092529;28;20405;-67
2022/04/20 04:42:00;;;;;;;4.90;4.30;;;4.10;99.90;;;;;;5092926;28;20448;-68
2022/04/20 04:44:27;;;;;;;4.50;4.10;;;4.00;99.90;;;;;;5093494;28;20176;-67
2022/04/20 04:49:37;;;;;;;4.33;4.00;;;4.10;99.90;;;;;;5092871;28;20436;-66
2022/04/20 04:52:04;;;;;;;5.03;4.33;;;4.20;99.90;;;;;;5093133;28;20419;-64
2022/04/20 04:54:30;;;;;;;5.00;4.57;;;4.30;99.90;;;;;;5093326;28;20161;-66
2022/04/20 04:56:56;;;;;;;4.50;4.10;;;4.40;99.90;;;;;;5093392;28;20935;-63
2022/04/20 04:59:21;;;;;;;4.60;4.20;;;4.60;99.90;;;;;;5090647;28;20218;-69
2022/04/20 05:01:47;;;;;;;4.30;4.00;;;4.70;99.90;;;;;;5092869;28;20193;-68
2022/04/20 05:04:13;;;;;;;7.20;5.40;;;4.90;99.90;;;;;;5093092;28;20161;-67
2022/04/20 05:06:38;;;;;;;6.50;5.20;;;5.00;1.00;;;;;;5093119;28;20184;-63
2022/04/20 05:09:04;;;;;;;7.40;5.40;;;5.10;1.00;;;;;;5092225;28;20182;-64
2022/04/20 05:11:30;;;;;;;5.13;4.17;;;5.20;1.00;;;;;;5093106;28;20257;-63
2022/04/20 05:13:56;;;;;;;6.70;5.27;;;5.20;1.00;;;;;;5092976;28;20173;-63
2022/04/20 05:16:22;;;;;;;8.93;5.33;;;5.30;1.00;;;;;;5092991;28;20200;-67
2022/04/20 05:18:47;;;;;;;4.83;4.43;;;5.40;1.00;;;;;;5091613;28;20465;-64
2022/04/20 05:21:13;;;;;;;5.53;5.03;;;5.50;1.00;;;;;;5092951;28;20404;-68
2022/04/20 05:23:39;;;;;;;7.30;5.20;;;5.60;1.00;;;;;;5093026;28;20169;-67
2022/04/20 05:26:04;;;;;;;5.77;5.30;;;5.70;1.00;;;;;;5092829;28;20166;-68
2022/04/20 05:28:30;;;;;;;7.37;5.70;;;5.80;1.00;;;;;;5090782;28;20169;-71
2022/04/20 05:30:56;;;;;;;7.27;6.20;;;5.80;1.00;;;;;;5093058;28;20170;-67
2022/04/20 05:33:21;;;;;;;4.70;4.30;;;5.90;1.00;;;;;;5092858;28;20276;-64
2022/04/20 05:35:47;;;;;;;7.63;5.33;;;5.90;1.00;;;;;;5092399;28;20211;-66
2022/04/20 05:43:41;;;;;;;5.80;4.20;;;6.20;1.00;;;;;;5092889;28;20441;-67
2022/04/20 05:46:07;;;;;;;6.63;4.50;;;6.20;1.00;;;;;;5095724;28;20399;-65
2022/04/20 05:48:35;;;;;;;4.80;4.40;;;6.30;1.00;;;;;;5095829;28;20169;-63
2022/04/20 05:51:01;;;;;;;5.27;4.77;;;6.40;1.00;;;;;;5096891;28;20180;-66
2022/04/20 05:53:27;;;;;;;6.03;5.43;;;6.40;1.00;;;;;;5096684;28;20415;-63
2022/04/20 05:55:53;;;;;;;9.03;5.20;;;6.50;1.00;;;;;;5095983;28;20215;-67
2022/04/20 05:58:18;;;;;;;5.30;4.90;;;6.60;1.00;;;;;;5096660;28;20628;-65
2022/04/20 06:00:44;;;;;;;8.50;5.77;;;6.70;1.00;;;;;;5095625;28;20162;-63
2022/04/20 06:03:11;;;;;;;6.87;5.63;;;6.80;1.00;;;;;;5096415;28;20533;-64
2022/04/20 06:05:37;;;;;;;5.03;4.67;;;6.90;1.00;;;;;;5096546;28;20189;-63
2022/04/20 06:08:03;;;;;;;4.83;4.43;;;6.80;1.00;;;;;;5096445;28;20770;-67
2022/04/20 06:10:30;;;;;;;5.73;5.23;;;6.90;1.00;;;;;;5095344;28;20192;-66
2022/04/20 06:12:56;;;;;;;9.23;4.70;;;7.00;1.00;;;;;;5095667;28;20190;-66
2022/04/20 06:15:21;;;;;;;5.87;5.33;;;7.20;1.00;;;;;;5096226;28;20493;-64
2022/04/20 06:17:47;;;;;;;5.40;5.00;;;7.30;1.00;;;;;;5096085;28;20217;-64
2022/04/20 06:20:13;;;;;;;5.07;4.67;;;7.40;1.00;;;;;;5095296;28;20312;-68
2022/04/20 06:22:38;;;;;;;4.77;4.37;;;7.40;1.00;;;;;;5096021;28;20183;-66
2022/04/20 06:25:04;;;;;;;4.80;4.30;;;7.60;1.00;;;;;;5096149;28;20418;-64
2022/04/20 06:27:31;;;;;;;3.90;3.60;;;7.60;1.00;;;;;;5096070;28;20171;-67
2022/04/20 06:29:57;;;;;;;8.93;5.47;;;7.60;1.00;;;;;;5095009;28;20407;-65
2022/04/20 06:32:24;;;;;;;4.07;3.77;;;7.60;1.00;;;;;;5095634;28;20424;-66
2022/04/20 06:34:53;;;;;;;4.13;3.83;;;7.70;1.00;;;;;;5095938;28;20396;-64
2022/04/20 06:37:19;;;;;;;4.83;4.33;;;7.80;1.00;;;;;;5095861;28;20816;-67
2022/04/20 06:39:45;;;;;;;4.33;4.03;;;7.90;1.00;;;;;;5095072;28;20453;-64
2022/04/20 06:42:11;;;;;;;3.43;3.00;;;8.00;1.00;;;;;;5095959;28;20386;-67
2022/04/20 06:44:37;;;;;;;4.20;3.80;;;8.10;1.00;;;;;;5095648;28;20400;-64
2022/04/20 06:47:03;;;;;;;4.53;4.23;;;8.30;1.00;;;;;;5094145;28;20662;-69
2022/04/20 06:49:29;;;;;;;3.90;3.60;;;8.40;1.00;;;;;;5094588;28;20409;-68
2022/04/20 07:00:08;;;;;;;2.90;2.70;;;8.80;1.00;;;;;;5094604;28;20435;-68
2022/04/20 07:02:34;;;;;;;3.30;3.00;;;8.90;99.90;;;;;;5095339;28;20424;-67
2022/04/20 07:05:00;;;;;;;2.53;2.37;;;9.00;99.90;;;;;;5095340;28;20429;-63
2022/04/20 07:07:26;;;;;;;3.20;2.90;;;9.10;99.90;;;;;;5094770;28;20414;-63
2022/04/20 07:09:51;;;;;;;2.23;2.13;;;9.30;99.90;;;;;;5094438;28;20203;-67
2022/04/20 07:12:17;;;;;;;2.73;2.50;;;9.40;99.90;;;;;;5095339;28;20330;-68
2022/04/20 07:14:42;;;;;;;2.77;2.57;;;9.50;99.90;;;;;;5095209;28;20169;-67
2022/04/20 07:17:08;;;;;;;3.37;2.83;;;9.60;99.90;;;;;;5094949;28;20209;-66
2022/04/20 07:19:35;;;;;;;2.93;2.73;;;9.70;99.90;;;;;;5094369;28;20681;-67
2022/04/20 07:22:01;;;;;;;3.40;3.07;;;9.80;99.90;;;;;;5095040;28;20211;-67
2022/04/20 07:24:26;;;;;;;3.00;2.80;;;9.90;99.90;;;;;;5094723;28;20403;-66
2022/04/20 07:26:52;;;;;;;2.80;2.53;;;10.00;99.90;;;;;;5094658;28;20498;-67
2022/04/20 07:29:18;;;;;;;3.63;3.20;;;10.00;99.90;;;;;;5093933;28;20277;-66
2022/04/20 07:31:43;;;;;;;3.47;3.17;;;10.00;99.90;;;;;;5094848;28;20199;-64
2022/04/20 07:34:09;;;;;;;4.50;3.10;;;10.10;99.90;;;;;;5094826;28;20176;-64
2022/04/20 07:36:34;;;;;;;2.90;2.70;;;10.20;99.90;;;;;;5094695;28;20212;-67
2022/04/20 07:39:00;;;;;;;3.63;3.30;;;10.30;99.90;;;;;;5093865;28;20205;-67
2022/04/20 07:41:25;;;;;;;4.03;3.17;;;10.40;99.90;;;;;;5094507;28;20170;-64
2022/04/20 07:43:51;;;;;;;3.60;3.30;;;10.50;99.90;;;;;;5092967;28;20184;-64
2022/04/20 07:46:19;;;;;;;4.83;3.70;;;10.60;99.90;;;;;;5094386;28;20180;-63
2022/04/20 07:48:44;;;;;;;3.63;3.33;;;10.70;99.90;;;;;;5093691;28;20195;-64
2022/04/20 07:51:10;;;;;;;2.70;2.50;;;10.80;99.90;;;;;;5094460;28;20898;-64
2022/04/20 07:53:36;;;;;;;3.27;2.97;;;10.80;99.90;;;;;;5094329;28;20193;-64
2022/04/20 07:56:02;;;;;;;3.33;3.03;;;10.90;99.90;;;;;;5094262;28;20395;-64
2022/04/20 07:58:28;;;;;;;3.03;2.83;;;11.00;99.90;;;;;;5092761;28;20184;-71
2022/04/20 08:00:54;;;;;;;3.50;2.90;;;11.10;99.90;;;;;;5093312;28;20198;-68
2022/04/20 08:03:20;;;;;;;3.40;3.10;;;11.20;99.90;;;;;;5094120;28;20188;-64
2022/04/20 08:05:53;;;;;;;3.10;2.90;;;11.40;99.90;;;;;;5094017;28;20401;-68
2022/04/20 08:08:20;;;;;;;5.93;3.43;;;11.40;99.90;;;;;;5094129;28;20161;-67
2022/04/20 08:10:46;;;;;;;3.13;2.93;;;11.50;99.90;;;;;;5093333;28;20425;-68
2022/04/20 08:15:57;;;;;;;2.77;2.57;;;11.80;99.90;;;;;;5094162;28;20386;-68
2022/04/20 08:18:23;;;;;;;3.00;2.70;;;11.80;99.90;;;;;;5094039;28;20435;-68
2022/04/20 08:20:49;;;;;;;7.10;2.70;;;12.00;99.90;;;;;;5092685;28;20378;-63
2022/04/20 08:23:16;;;;;;;4.57;2.93;;;12.10;99.90;;;;;;5093578;28;20811;-64
2022/04/20 08:25:42;;;;;;;2.40;2.23;;;12.20;99.90;;;;;;5093666;28;20394;-64
2022/04/20 08:28:09;;;;;;;3.73;2.33;;;12.20;99.90;;;;;;5093757;28;20419;-68
2022/04/20 08:30:38;;;;;;;2.70;2.50;;;12.30;99.90;;;;;;5092933;28;20379;-68
2022/04/20 08:33:08;;;;;;;3.50;3.20;;;12.50;99.90;;;;;;5093612;28;20406;-64
2022/04/20 08:35:34;;;;;;;2.70;2.50;;;12.50;99.90;;;;;;5093467;28;20403;-68
2022/04/20 08:38:00;;;;;;;3.83;2.77;;;12.60;99.90;;;;;;5093495;28;20907;-63
2022/04/20 08:40:28;;;;;;;3.40;2.70;;;12.70;99.90;;;;;;5092288;28;20389;-68
2022/04/20 08:42:54;;;;;;;2.10;2.00;;;12.80;99.90;;;;;;5093442;28;20394;-69
2022/04/20 08:45:20;;;;;;;2.53;2.40;;;13.10;99.90;;;;;;5093490;28;20400;-69
2022/04/20 08:47:50;;;;;;;3.33;2.37;;;13.20;99.90;;;;;;5093403;28;20741;-65
2022/04/20 08:50:16;;;;;;;10.20;2.63;;;13.10;99.90;;;;;;5092559;28;20370;-69
2022/04/20 08:52:46;;;;;;;2.80;2.60;;;13.20;99.90;;;;;;5093281;28;20394;-64
2022/04/20 08:55:13;;;;;;;2.67;2.47;;;13.40;99.90;;;;;;5093500;28;20385;-67
2022/04/20 08:57:40;;;;;;;5.60;2.10;;;13.50;99.90;;;;;;5093321;28;20450;-68
2022/04/20 09:00:12;;;;;;;2.87;2.60;;;13.50;99.90;;;;;;5091718;28;20370;-69
2022/04/20 09:02:38;;;;;;;2.23;2.03;;;13.60;99.90;;;;;;5093114;28;20386;-64
2022/04/20 09:05:05;;;;;;;3.23;2.77;;;13.60;99.90;;;;;;5093277;28;20486;-69
2022/04/20 09:07:31;;;;;;;2.90;2.57;;;13.70;99.90;;;;;;5091918;28;20444;-68
2022/04/20 09:09:58;;;;;;;2.63;2.43;;;13.80;99.90;;;;;;5092174;28;20451;-69
2022/04/20 09:12:24;;;;;;;2.40;2.20;;;14.00;99.90;;;;;;5093217;28;20405;-63
2022/04/20 09:14:51;;;;;;;2.53;2.33;;;14.20;99.90;;;;;;5093150;28;20399;-64
2022/04/20 09:17:20;;;;;;;2.60;2.50;;;14.20;99.90;;;;;;5091620;28;20805;-65
2022/04/20 09:19:51;;;;;;;2.70;2.50;;;14.40;99.90;;;;;;5091067;28;20415;-66
2022/04/20 09:22:23;;;;;;;2.33;2.23;;;14.80;99.90;;;;;;5092941;28;20485;-64
2022/04/20 09:24:59;;;;;;;2.40;2.30;;;14.90;99.90;;;;;;5093009;28;20823;-64
2022/04/20 09:27:28;;;;;;;2.70;2.30;;;15.10;99.90;;;;;;5093002;28;20897;-68
2022/04/20 09:29:58;;;;;;;3.07;2.30;;;15.30;99.90;;;;;;5092155;28;20430;-70
2022/04/20 09:32:31;;;;;;;3.20;2.57;;;15.20;99.90;;;;;;5092921;28;20419;-64
2022/04/20 09:35:03;;;;;;;2.90;2.40;;;15.20;99.90;;;;;;5092419;28;20371;-69
2022/04/20 09:37:30;;;;;;;3.43;2.30;;;15.50;99.90;;;;;;5092810;28;20447;-64
2022/04/20 09:39:57;;;;;;;2.53;1.97;;;15.90;99.90;;;;;;5091874;28;20450;-65
2022/04/20 09:42:24;;;;;;;3.40;2.13;;;16.50;99.90;;;;;;5092755;28;20498;-64
2022/04/20 09:45:02;;;;;;;4.43;2.10;;;17.00;99.90;;;;;;5092826;28;20825;-64
2022/04/20 09:50:27;;;;;;;2.83;1.87;;;17.70;99.90;;;;;;5091785;28;20410;-68
2022/04/20 09:52:59;;;;;;;2.10;2.00;;;17.80;99.90;;;;;;5092090;28;20427;-69
2022/04/20 09:55:34;;;;;;;2.00;1.90;;;18.00;99.90;;;;;;5092727;28;20415;-69
2022/04/20 09:58:21;;;;;;;1.70;1.60;;;18.40;99.40;;;;;;5092639;28;20460;-65
2022/04/20 10:00:55;;;;;;;1.90;1.80;;;18.50;97.50;;;;;;5091901;28;20396;-64
2022/04/20 10:03:31;;;;;;;8.10;2.20;;;18.50;95.10;;;;;;5092700;28;20420;-64
2022/04/20 10:05:58;;;;;;;4.17;1.77;;;17.70;94.80;;;;;;5092653;28;20430;-69
2022/04/20 10:08:25;;;;;;;2.60;1.97;;;17.40;94.70;;;;;;5092292;28;20728;-65
2022/04/20 10:10:53;;;;;;;2.20;2.00;;;17.50;94.80;;;;;;5091397;28;20483;-69
2022/04/20 10:13:20;;;;;;;3.00;2.13;;;17.80;94.90;;;;;;5092122;28;20510;-64
2022/04/20 10:16:08;;;;;;;3.13;2.70;;;17.70;94.80;;;;;;5092242;28;20403;-70
2022/04/20 10:18:37;;;;;;;2.23;2.03;;;17.80;94.90;;;;;;5091436;28;20959;-66
2022/04/20 10:21:05;;;;;;;2.43;2.17;;;18.10;95.00;;;;;;5092616;28;20396;-70
2022/04/20 10:23:32;;;;;;;3.20;2.40;;;18.20;95.10;;;;;;5092326;28;20416;-70
2022/04/20 10:25:59;;;;;;;2.10;1.90;;;18.70;95.20;;;;;;5092302;28;20488;-65
2022/04/20 10:28:50;;;;;;;4.50;2.57;;;18.80;92.50;;;;;;5091656;28;20844;-65
2022/04/20 10:31:28;;;;;;;4.63;2.90;;;18.80;90.60;;;;;;5092305;28;20482;-69
2022/04/20 10:33:55;;;;;;;3.53;3.00;;;18.80;90.10;;;;;;5096070;28;20481;-71
2022/04/20 10:36:32;;;;;;;10.07;3.23;;;18.40;84.30;;;;;;5095958;28;20464;-69
2022/04/20 10:39:22;;;;;;;3.87;3.47;;;18.10;79.20;;;;;;5094961;28;20399;-64
2022/04/20 10:42:15;;;;;;;6.37;3.47;;;17.80;78.80;;;;;;5095821;28;20419;-64
2022/04/20 10:45:01;;;;;;;5.40;4.40;;;18.00;86.20;;;;;;5095119;28;20392;-71
2022/04/20 10:47:35;;;;;;;3.10;2.77;;;18.10;76.10;;;;;;5095670;28;20742;-70
2022/04/20 10:50:17;;;;;;;5.10;4.23;;;17.80;77.10;;;;;;5094731;28;20440;-69
2022/04/20 10:52:58;;;;;;;7.33;5.07;;;18.10;84.10;;;;;;5095375;28;20441;-70
2022/04/20 10:55:35;;;;;;;5.73;4.00;;;18.00;75.00;;;;;;5093183;28;20434;-71
2022/04/20 10:58:03;;;;;;;4.10;3.43;;;18.10;72.60;;;;;;5094182;28;20458;-65
2022/04/20 11:00:34;;;;;;;8.40;4.17;;;18.40;76.20;;;;;;5094633;28;20406;-70
2022/04/20 11:03:09;;;;;;;5.10;4.23;;;18.80;76.80;;;;;;5094681;28;20797;-71
2022/04/20 11:05:55;;;;;;;6.67;4.10;;;19.00;75.10;;;;;;5095258;28;20419;-64
2022/04/20 11:08:25;;;;;;;10.67;3.87;;;18.90;74.30;;;;;;5095466;28;20484;-71
2022/04/20 11:19:10;;;;;;;5.63;3.23;;;19.00;64.30;;;;;;5094189;28;20400;-64
2022/04/20 11:21:36;;;;;;;10.70;4.27;;;19.40;70.40;;;;;;5093136;28;20900;-70
2022/04/20 11:24:05;;;;;;;5.10;3.60;;;20.00;70.70;;;;;;5094854;28;20461;-70
2022/04/20 11:26:48;;;;;;;5.17;4.10;;;20.60;65.80;;;;;;5095096;28;20430;-69
2022/04/20 11:29:17;;;;;;;5.17;4.10;;;21.00;62.90;;;;;;5093976;28;20542;-66
2022/04/20 11:31:48;;;;;;;5.17;4.10;;;20.30;52.90;;;;;;5095004;28;20435;-71
2022/04/20 11:34:20;;;;;;;4.37;3.73;;;19.80;52.30;;;;;;5094858;28;20408;-70
2022/04/20 11:36:55;;;;;;;4.87;3.80;;;19.40;49.40;;;;;;5094522;28;20451;-64
2022/04/20 11:39:26;;;;;;;5.37;3.73;;;19.40;49.60;;;;;;5093763;28;20392;-68
2022/04/20 11:41:54;;;;;;;4.50;3.73;;;19.80;52.40;;;;;;5094080;28;20420;-69
2022/04/20 11:44:26;;;;;;;3.83;3.47;;;20.00;53.40;;;;;;5094304;28;20392;-70
2022/04/20 11:47:02;;;;;;;4.80;3.37;;;20.30;54.60;;;;;;5094338;28;20886;-69
2022/04/20 11:49:42;;;;;;;3.57;2.87;;;20.60;50.00;;;;;;5093532;28;20754;-72
2022/04/20 11:52:11;;;;;;;3.27;2.50;;;21.20;54.30;;;;;;5094179;28;20430;-68
2022/04/20 11:54:38;;;;;;;4.33;3.03;;;21.90;53.70;;;;;;5094373;28;20877;-72
2022/04/20 11:57:10;;;;;;;3.97;3.00;;;22.80;51.30;;;;;;5094334;28;20450;-68
2022/04/20 11:59:50;;;;;;;6.57;3.30;;;23.00;52.30;;;;;;5093342;28;20497;-70
2022/04/20 12:02:19;;;;;;;5.37;3.33;;;22.90;46.40;;;;;;5092326;28;20451;-70
2022/04/20 12:04:47;;;;;;;3.83;3.47;;;23.10;46.20;;;;;;5094144;28;20502;-69
2022/04/20 12:07:13;;;;;;;6.23;3.40;;;23.00;42.40;;;;;;5058992;28;20468;-71
2022/04/20 12:09:41;;;;;;;8.10;3.93;;;22.90;41.40;;;;;;5094227;28;20467;-67
2022/04/20 12:12:11;;;;;;;4.53;4.13;;;22.60;36.10;;;;;;5093803;28;20423;-71
2022/04/20 12:14:39;;;;;;;4.40;3.60;;;22.50;37.20;;;;;;5094025;28;20482;-71
2022/04/20 12:17:16;;;;;;;5.67;4.03;;;22.40;35.10;;;;;;5093606;28;20542;-70
2022/04/20 12:19:42;;;;;;;5.40;4.90;;;22.00;32.70;;;;;;5092869;28;20415;-70
2022/04/20 12:22:16;;;;;;;7.40;3.87;;;21.30;28.50;;;;;;5059080;28;20945;-76
2022/04/20 12:24:43;;;;;;;4.57;3.73;;;20.80;26.70;;;;;;5093688;28;20950;-69
2022/04/20 12:27:24;;;;;;;4.17;3.77;;;20.20;27.60;;;;;;5093765;28;20399;-67
2022/04/20 12:29:58;;;;;;;5.30;3.57;;;19.40;24.50;;;;;;5092585;28;20455;-67
2022/04/20 12:32:32;;;;;;;5.20;3.57;;;18.70;28.10;;;;;;5093442;28;20503;-64
2022/04/20 12:35:05;;;;;;;3.90;3.53;;;18.50;30.60;;;;;;5092991;28;20411;-64
2022/04/20 12:37:31;;;;;;;4.60;4.10;;;17.90;28.80;;;;;;5093494;28;20449;-64
2022/04/20 12:40:17;;;;;;;5.00;4.50;;;17.90;29.00;;;;;;5092577;28;20444;-64
2022/04/20 12:43:05;;;;;;;3.70;3.33;;;18.00;30.70;;;;;;5093490;28;20189;-67
2022/04/20 12:45:35;;;;;;;8.33;4.90;;;18.00;34.00;;;;;;5092089;28;20775;-67
2022/04/20 12:48:10;;;;;;;5.20;4.00;;;17.90;31.70;;;;;;5093374;28;20410;-64
2022/04/20 12:50:42;;;;;;;4.33;3.60;;;17.80;35.40;;;;;;5092460;28;20396;-68
2022/04/20 12:53:08;;;;;;;5.47;3.97;;;18.10;35.10;;;;;;5092733;28;20455;-63
2022/04/20 12:55:36;;;;;;;4.10;3.33;;;18.80;35.40;;;;;;5092512;28;20438;-64
2022/04/20 13:03:39;;;;;;;7.57;3.67;;;20.50;36.90;;;;;;5093153;28;20518;-65
2022/04/20 13:06:10;;;;;;;4.73;3.50;;;20.70;39.00;;;;;;5093044;28;20869;-64
2022/04/20 13:08:38;;;;;;;3.40;3.10;;;21.50;43.40;;;;;;5092277;28;20427;-68
2022/04/20 13:11:04;;;;;;;4.40;3.60;;;21.60;33.50;;;;;;5092491;28;20396;-65
2022/04/20 13:13:31;;;;;;;3.80;3.43;;;21.70;33.30;;;;;;5092998;28;20418;-64
2022/04/20 13:15:57;;;;;;;4.43;3.17;;;21.80;35.90;;;;;;5092951;28;20402;-64
2022/04/20 13:18:23;;;;;;;3.20;2.90;;;21.40;28.60;;;;;;5092909;28;20813;-68
2022/04/20 13:20:49;;;;;;;3.50;3.20;;;20.80;27.10;;;;;;5092254;28;20165;-64
2022/04/20 13:23:16;;;;;;;4.13;3.40;;;20.70;28.60;;;;;;5092835;28;20489;-66
2022/04/20 13:28:26;;;;;;;3.33;3.03;;;20.30;23.00;;;;;;5092206;28;20588;-65
2022/04/20 13:30:52;;;;;;;4.67;3.03;;;20.10;25.00;;;;;;5092142;28;20450;-64
2022/04/20 13:33:18;;;;;;;2.93;2.63;;;20.10;28.30;;;;;;5092672;28;20197;-65
2022/04/20 13:35:47;;;;;;;5.10;3.70;;;20.20;27.70;;;;;;5092936;28;20240;-64
2022/04/20 13:38:13;;;;;;;4.20;2.97;;;20.10;23.00;;;;;;5092658;28;20560;-64
2022/04/20 13:40:39;;;;;;;3.40;2.90;;;20.30;28.90;;;;;;5091818;28;20894;-64